Impacts TAF Board
For situational awareness. Not to be used for flight planning purposes.
IDs:

KGGG - Longview/Gregg Cnty, TX, US

Issued at 0540 UTC 18 Sep 2021
Updated at 0822 UTC 18 Sep 2021
Potential Impact None Slight Moderate High
Time0753Z 18/09Z 18/10Z 18/11Z 18/12Z 18/13Z 18/14Z 18/15Z 18/16Z 18/17Z 18/18Z 18/19Z 18/20Z 18/21Z>>
Type OBS PRVL PRVL PRVL PRVL PRVL PRVL PRVL PRVL PRVL PRVL PRVL PRVL PRVL
VIS 10 >6 >6 >6 >6 >6 >6 >6 >6 >6 >6 >6 >6 >6
CIG 75 20 20 20 15 15 15 15 23 23 30 30 30 30
Cover OVC BKN BKN BKN BKN BKN BKN BKN BKN BKN BKN BKN BKN BKN
FltCat VFR MVFR MVFR MVFR MVFR MVFR MVFR MVFR MVFR MVFR MVFR MVFR MVFR MVFR
WX -- -- -- -- -- -- -- -- -- -- VCTS VCTS VCTS VCTS
WDir VRB VRB VRB VRB VRB VRB VRB VRB 20 20 20 20 20 20
WSpd 0 3 3 3 3 3 3 3 5 5 5 5 5 5
WGst -- -- -- -- -- -- -- -- -- -- -- -- -- --
Raw TAF
KGGG 180540Z 1806/1906 00000KT P6SM BKN080
  FM180900 VRB03KT P6SM BKN020
  FM181200 VRB03KT P6SM SCT008 BKN015
  FM181600 02005KT P6SM BKN023
  FM181800 02005KT P6SM VCTS BKN030CB
  FM190000 04007KT P6SM VCTS BKN040CB OVC100


Raw METAR
KGGG 180753Z AUTO 00000KT 10SM SCT060 OVC075 22/21 A3002 RMK AO2 SLP157 T02220211
KGGG 180653Z AUTO 00000KT 10SM CLR 22/21 A3000 RMK AO2 SLP153 T02170211
KGGG 180553Z AUTO 00000KT 10SM SCT095 22/21 A3000 RMK AO2 SLP151 T02220211 10272 20217 403110206 51001

METAR Board
Radar Display
Forecast Discussion
For situational awareness. Not to be used for flight planning purposes.